EFRO

Rovaniemi Airport

Rovaniemi, Finland
METAR EFRO 141720Z AUTO 21008KT 9999 -SG BKN003 OVC005 M06/M06 Q1030
Observed Flight Rules
Dec-14 @ 17:20 UTC (33 minutes ago) Instrument Flight Rules
Wind Visibility Clouds Conditions
210° at 8 knots 10,000+ meters
  • Broken at 300' AGL
  • Overcast at 500' AGL
  • Light Snow grains
Temperatures Readings
Current -6°C / 21°F
Dewpoint -6°C / 21°F
Humidity 100%
Altimeter 30.41" Hg
Pressure 1030 hPa
Elevation 201
METAR EFRO 141720Z AUTO 21008KT 9999 -SG BKN003 OVC005 M06/M06 Q1030
Observed Flight Rules
Dec-14 @ 17:20 UTC
(33 minutes ago)
LIFR
Wind Visibility
210° at 8 knots 10,000+ meters
Clouds
  • Broken at 300' AGL
  • Overcast at 500' AGL
Conditions
  • Light Snow grains
Temperature Dewpoint
-6°C / 21°F -6°C / 21°F
Humidity Altimeter Pressure
100% 30.41" Hg 1030 hPa